Time;durP1;ratioP1;P1;durP2;ratioP2;P2;SDS_P1;SDS_P2;PMS_P1;PMS_P2;Temp;Humidity;BMP_temperature;BMP_pressure;BME280_temperature;BME280_humidity;BME280_pressure;Samples;Min_cycle;Max_cycle;Signal;HPM_P1;HPM_P2
2023/12/23 00:01:20;;;;;;;2.20;0.40;;;6.20;99.90;;;;;;4947839;28;20130;-77
2023/12/23 00:03:45;;;;;;;3.30;0.50;;;6.30;99.90;;;;;;4972418;28;20053;-77
2023/12/23 00:06:11;;;;;;;2.55;0.40;;;6.30;99.90;;;;;;4968808;28;20051;-77
2023/12/23 00:08:37;;;;;;;9.30;1.08;;;6.30;99.90;;;;;;4953346;28;20058;-77
2023/12/23 00:11:03;;;;;;;2.85;0.43;;;6.30;99.90;;;;;;4960694;28;20047;-77
2023/12/23 00:13:29;;;;;;;4.90;0.40;;;6.30;99.90;;;;;;4979869;28;20047;-77
2023/12/23 00:15:55;;;;;;;0.30;0.13;;;6.30;99.90;;;;;;4966795;28;20035;-77
2023/12/23 00:18:21;;;;;;;0.32;0.32;;;6.30;99.90;;;;;;4949942;28;20125;-77
2023/12/23 00:20:47;;;;;;;2.67;0.30;;;6.30;99.90;;;;;;4974393;28;20042;-77
2023/12/23 00:23:13;;;;;;;0.13;0.00;;;6.30;99.90;;;;;;4965583;28;20093;-77
2023/12/23 00:25:39;;;;;;;0.65;0.32;;;6.30;99.90;;;;;;4970188;28;20444;-77
2023/12/23 00:28:06;;;;;;;2.10;0.05;;;6.40;99.90;;;;;;4966785;28;20078;-77
2023/12/23 00:30:32;;;;;;;0.85;0.60;;;6.40;99.90;;;;;;5004586;28;20043;-77
2023/12/23 00:32:57;;;;;;;2.38;0.82;;;6.40;99.90;;;;;;4966616;28;20058;-77
2023/12/23 00:35:23;;;;;;;0.80;0.25;;;6.40;99.90;;;;;;4984673;28;20035;-77
2023/12/23 00:37:49;;;;;;;4.30;0.20;;;6.50;99.90;;;;;;4981415;28;20038;-77
2023/12/23 00:40:15;;;;;;;0.10;0.00;;;6.50;99.90;;;;;;5008371;28;20116;-77
2023/12/23 00:42:40;;;;;;;1.55;0.55;;;6.50;99.90;;;;;;4973268;28;20049;-77
2023/12/23 00:45:06;;;;;;;5.65;0.45;;;6.60;99.90;;;;;;4969999;28;20074;-77
2023/12/23 00:47:32;;;;;;;5.50;0.73;;;6.60;99.90;;;;;;4998842;28;20078;-77
2023/12/23 00:49:58;;;;;;;0.63;0.20;;;6.60;99.90;;;;;;4987157;28;20542;-77
2023/12/23 00:52:24;;;;;;;0.00;0.00;;;6.70;99.90;;;;;;4986855;28;20126;-77
2023/12/23 00:54:49;;;;;;;1.63;0.52;;;6.60;99.90;;;;;;4951335;28;20069;-77
2023/12/23 00:57:15;;;;;;;10.63;0.88;;;6.70;99.90;;;;;;5003625;28;20050;-77
2023/12/23 00:59:41;;;;;;;4.03;0.80;;;6.60;99.90;;;;;;4967168;28;20069;-77
2023/12/23 01:02:07;;;;;;;0.35;0.15;;;6.70;99.90;;;;;;4974360;28;20565;-77
2023/12/23 01:04:32;;;;;;;0.60;0.20;;;6.70;99.90;;;;;;4954785;28;20078;-77
2023/12/23 01:06:58;;;;;;;3.13;0.30;;;6.70;99.90;;;;;;4974052;28;20062;-77
2023/12/23 01:09:24;;;;;;;0.32;0.17;;;6.70;99.90;;;;;;4968644;28;20035;-77
2023/12/23 01:11:50;;;;;;;0.32;0.00;;;6.80;99.90;;;;;;4999452;28;20039;-77
2023/12/23 01:14:15;;;;;;;1.55;0.38;;;6.70;99.90;;;;;;4967683;28;20118;-77
2023/12/23 01:16:41;;;;;;;2.63;0.28;;;6.70;99.90;;;;;;4975494;28;20098;-77
2023/12/23 01:19:07;;;;;;;1.02;0.68;;;6.80;99.90;;;;;;5001631;28;20510;-77
2023/12/23 01:21:33;;;;;;;6.03;0.68;;;6.80;99.90;;;;;;5003934;28;20051;-77
2023/12/23 01:23:58;;;;;;;0.10;0.10;;;6.80;99.90;;;;;;4968235;28;20538;-77
2023/12/23 01:26:24;;;;;;;1.23;0.35;;;6.80;99.90;;;;;;4970835;28;20531;-77
2023/12/23 01:28:50;;;;;;;2.10;1.20;;;6.80;99.90;;;;;;4958982;28;20043;-77
2023/12/23 01:31:21;;;;;;;2.08;0.55;;;6.90;99.90;;;;;;4958123;28;20275;-77
2023/12/23 01:33:46;;;;;;;7.35;1.55;;;6.90;99.90;;;;;;4971464;28;20058;-77
2023/12/23 01:36:12;;;;;;;0.10;0.10;;;7.00;99.90;;;;;;4964989;28;20039;-77
2023/12/23 01:38:38;;;;;;;2.15;0.13;;;6.90;99.90;;;;;;4982406;28;20039;-77
2023/12/23 01:41:04;;;;;;;0.50;0.10;;;6.90;99.90;;;;;;4997875;28;20039;-77
2023/12/23 01:43:29;;;;;;;0.63;0.08;;;6.90;99.90;;;;;;4970358;28;20030;-77
2023/12/23 01:45:59;;;;;;;3.15;0.35;;;6.90;99.90;;;;;;4971046;28;20102;-77
2023/12/23 01:48:26;;;;;;;1.75;0.17;;;6.90;99.90;;;;;;4991614;28;20101;-77
2023/12/23 01:50:53;;;;;;;2.60;0.30;;;6.90;99.90;;;;;;4998429;28;20487;-77
2023/12/23 01:53:20;;;;;;;0.50;0.40;;;6.90;99.90;;;;;;4967001;28;20035;-77
2023/12/23 01:55:45;;;;;;;1.02;0.03;;;6.80;99.90;;;;;;4986528;28;20114;-77
2023/12/23 01:58:11;;;;;;;0.47;0.10;;;6.80;99.90;;;;;;4970392;28;20039;-77
2023/12/23 02:00:37;;;;;;;2.95;0.20;;;6.80;99.90;;;;;;4967597;28;20056;-77
2023/12/23 02:03:03;;;;;;;4.28;0.68;;;6.80;99.90;;;;;;4971824;28;20051;-77
2023/12/23 02:05:29;;;;;;;1.85;0.35;;;6.70;99.90;;;;;;4965352;28;20121;-76
2023/12/23 02:07:54;;;;;;;1.55;0.30;;;6.80;99.90;;;;;;5002107;28;20555;-76
2023/12/23 02:10:21;;;;;;;4.65;0.57;;;6.80;99.90;;;;;;4998352;28;20117;-76
2023/12/23 02:13:26;;;;;;;5.45;0.57;;;6.80;99.90;;;;;;4999616;28;20042;-77
2023/12/23 02:15:52;;;;;;;1.25;0.20;;;6.80;99.90;;;;;;4912897;29;20119;-77
2023/12/23 02:18:21;;;;;;;1.25;0.15;;;6.80;99.90;;;;;;4944536;28;20055;-77
2023/12/23 02:20:51;;;;;;;0.10;0.00;;;6.80;99.90;;;;;;4961816;28;20043;-77
2023/12/23 02:23:17;;;;;;;0.68;0.17;;;6.80;99.90;;;;;;5000086;28;20054;-77
2023/12/23 02:25:48;;;;;;;0.82;0.30;;;6.80;99.90;;;;;;4977919;28;20047;-77
2023/12/23 02:28:17;;;;;;;4.57;0.32;;;6.80;99.90;;;;;;4998100;28;20058;-77
2023/12/23 02:30:45;;;;;;;0.00;0.00;;;6.80;99.90;;;;;;4965819;28;20078;-76
2023/12/23 02:33:12;;;;;;;0.00;0.00;;;6.80;99.90;;;;;;4997816;28;20034;-76
2023/12/23 02:35:37;;;;;;;0.73;0.47;;;6.80;99.90;;;;;;4983553;28;20428;-76
2023/12/23 02:38:03;;;;;;;1.08;0.17;;;6.80;99.90;;;;;;4968149;28;20054;-76
2023/12/23 02:40:29;;;;;;;1.10;0.15;;;6.80;99.90;;;;;;4969324;28;20047;-76
2023/12/23 02:42:55;;;;;;;1.70;0.32;;;6.80;99.90;;;;;;4980086;28;20049;-76
2023/12/23 02:45:20;;;;;;;2.08;0.35;;;6.80;99.90;;;;;;4976086;28;20058;-76
2023/12/23 02:47:47;;;;;;;0.45;0.05;;;6.80;99.90;;;;;;4958117;28;20074;-76
2023/12/23 02:50:13;;;;;;;2.75;0.20;;;6.60;99.90;;;;;;4997749;28;20051;-76
2023/12/23 02:52:38;;;;;;;2.35;0.38;;;6.70;99.90;;;;;;4965266;28;20035;-76
2023/12/23 02:55:05;;;;;;;0.00;0.00;;;6.70;99.90;;;;;;5001359;28;20047;-76
2023/12/23 02:57:30;;;;;;;0.73;0.30;;;6.60;99.90;;;;;;4967523;28;20107;-76
2023/12/23 02:59:56;;;;;;;0.32;0.10;;;6.60;99.90;;;;;;5006685;28;20126;-76
2023/12/23 03:02:22;;;;;;;6.13;0.45;;;6.60;99.90;;;;;;4968904;28;20089;-76
2023/12/23 03:04:47;;;;;;;4.40;0.63;;;6.50;99.90;;;;;;4970616;28;20053;-77
2023/12/23 03:07:13;;;;;;;0.00;0.00;;;6.50;99.90;;;;;;4966639;28;20492;-77
2023/12/23 03:09:39;;;;;;;0.20;0.00;;;6.50;99.90;;;;;;4969136;28;20082;-76
2023/12/23 03:12:05;;;;;;;0.00;0.00;;;6.50;99.90;;;;;;4969584;28;20039;-76
2023/12/23 03:14:30;;;;;;;0.10;0.10;;;6.50;99.90;;;;;;4965386;28;20499;-76
2023/12/23 03:16:56;;;;;;;0.45;0.20;;;6.50;99.90;;;;;;5000919;28;20141;-76
2023/12/23 03:19:22;;;;;;;0.32;0.22;;;6.50;99.90;;;;;;4985208;28;20491;-76
2023/12/23 03:21:48;;;;;;;3.08;0.57;;;6.50;99.90;;;;;;4993591;28;20116;-76
2023/12/23 03:24:13;;;;;;;2.03;0.08;;;6.50;99.90;;;;;;4966736;28;20051;-76
2023/12/23 03:26:39;;;;;;;2.90;0.38;;;6.50;99.90;;;;;;4960295;28;20058;-76
2023/12/23 03:29:05;;;;;;;2.55;0.20;;;6.40;99.90;;;;;;4961492;28;20051;-76
2023/12/23 03:31:34;;;;;;;2.28;0.63;;;6.50;99.90;;;;;;5008553;28;20034;-76
2023/12/23 03:34:02;;;;;;;0.17;0.10;;;6.50;99.90;;;;;;5000445;28;20039;-76
2023/12/23 03:36:28;;;;;;;4.47;0.28;;;6.50;99.90;;;;;;4989500;28;20134;-77
2023/12/23 03:38:55;;;;;;;2.90;0.63;;;6.40;99.90;;;;;;4949381;28;20047;-76
2023/12/23 03:41:21;;;;;;;1.88;0.35;;;6.40;99.90;;;;;;4961171;28;20035;-76
2023/12/23 03:43:47;;;;;;;3.20;0.55;;;6.40;99.90;;;;;;4954412;28;20066;-76
2023/12/23 03:46:13;;;;;;;2.28;0.10;;;6.40;99.90;;;;;;4977342;28;20049;-76
2023/12/23 03:48:38;;;;;;;0.00;0.00;;;6.40;99.90;;;;;;5003233;28;20657;-76
2023/12/23 03:51:04;;;;;;;1.20;0.05;;;6.40;99.90;;;;;;5001712;28;20085;-76
2023/12/23 03:53:30;;;;;;;1.45;0.17;;;6.40;99.90;;;;;;4970189;28;20054;-76
2023/12/23 03:55:55;;;;;;;0.10;0.00;;;6.40;99.90;;;;;;4967296;28;20042;-76
2023/12/23 03:58:21;;;;;;;0.20;0.10;;;6.40;99.90;;;;;;4969693;28;20074;-76
2023/12/23 04:00:47;;;;;;;0.00;0.00;;;6.40;99.90;;;;;;4975157;28;20115;-76
2023/12/23 04:03:13;;;;;;;0.38;0.20;;;6.40;99.90;;;;;;4958654;28;20153;-76
2023/12/23 04:05:39;;;;;;;0.30;0.20;;;6.40;99.90;;;;;;5001224;28;20118;-76
2023/12/23 04:08:05;;;;;;;0.00;0.00;;;6.30;99.90;;;;;;4998843;28;20660;-76
2023/12/23 04:10:31;;;;;;;0.08;0.00;;;6.40;99.90;;;;;;4959567;28;20046;-77
2023/12/23 04:12:57;;;;;;;1.15;0.77;;;6.30;99.90;;;;;;5002512;28;20468;-76
2023/12/23 04:15:22;;;;;;;1.02;0.10;;;6.40;99.90;;;;;;5001700;28;20099;-76
2023/12/23 04:17:48;;;;;;;2.63;0.15;;;6.30;99.90;;;;;;4965503;28;20035;-76
2023/12/23 04:20:14;;;;;;;0.00;0.00;;;6.40;99.90;;;;;;4996856;28;20047;-76
2023/12/23 04:22:40;;;;;;;0.00;0.00;;;6.50;99.90;;;;;;4989003;28;20035;-76
2023/12/23 04:25:06;;;;;;;0.30;0.10;;;6.40;99.90;;;;;;4996695;28;20061;-76
2023/12/23 04:27:31;;;;;;;0.00;0.00;;;6.40;99.90;;;;;;5000822;28;20050;-76
2023/12/23 04:29:57;;;;;;;1.20;0.43;;;6.40;99.90;;;;;;4951950;28;20466;-76
2023/12/23 04:32:23;;;;;;;0.00;0.00;;;6.50;99.90;;;;;;4974036;28;20070;-76
2023/12/23 04:34:48;;;;;;;1.38;0.10;;;6.40;99.90;;;;;;4960963;28;20038;-76
2023/12/23 04:37:14;;;;;;;0.00;0.00;;;6.40;99.90;;;;;;4999782;28;20045;-76
2023/12/23 04:39:40;;;;;;;0.00;0.00;;;6.50;99.90;;;;;;4966470;28;20074;-76
2023/12/23 04:42:05;;;;;;;0.10;0.10;;;6.40;99.90;;;;;;4980637;28;20043;-76
2023/12/23 04:44:31;;;;;;;0.10;0.00;;;6.50;99.90;;;;;;4960693;28;20446;-76
2023/12/23 04:46:57;;;;;;;0.03;0.00;;;6.40;99.90;;;;;;4986205;28;20047;-76
2023/12/23 04:49:24;;;;;;;1.13;0.10;;;6.50;99.90;;;;;;4985988;28;20035;-76
2023/12/23 04:51:50;;;;;;;0.00;0.00;;;6.50;99.90;;;;;;4955940;28;20121;-76
2023/12/23 04:54:15;;;;;;;0.47;0.13;;;6.60;99.90;;;;;;4967516;28;20501;-76
2023/12/23 04:56:41;;;;;;;0.00;0.00;;;6.50;99.90;;;;;;4985884;28;20089;-77
2023/12/23 04:59:08;;;;;;;0.40;0.10;;;6.50;99.90;;;;;;5001991;28;20062;-77
2023/12/23 05:01:34;;;;;;;0.00;0.00;;;6.50;99.90;;;;;;4968100;28;20067;-77
2023/12/23 05:03:59;;;;;;;0.00;0.00;;;6.60;99.90;;;;;;5005527;28;20130;-77
2023/12/23 05:06:25;;;;;;;0.00;0.00;;;6.60;99.90;;;;;;4997363;28;20139;-77
2023/12/23 05:08:51;;;;;;;0.15;0.13;;;6.50;99.90;;;;;;4960688;28;20089;-77
2023/12/23 05:11:16;;;;;;;0.10;0.03;;;6.60;99.90;;;;;;4966561;28;20066;-77
2023/12/23 05:13:42;;;;;;;0.00;0.00;;;6.50;99.90;;;;;;4999006;28;20038;-77
2023/12/23 05:16:08;;;;;;;0.00;0.00;;;6.60;99.90;;;;;;4958083;28;20051;-77
2023/12/23 05:18:34;;;;;;;0.00;0.00;;;6.60;99.90;;;;;;4965483;28;20039;-77
2023/12/23 05:21:00;;;;;;;0.13;0.00;;;6.50;99.90;;;;;;4986242;28;20173;-77
2023/12/23 05:23:25;;;;;;;0.00;0.00;;;6.50;99.90;;;;;;4970892;28;20026;-77
2023/12/23 05:25:53;;;;;;;0.00;0.00;;;6.60;99.90;;;;;;4976283;28;20176;-77
2023/12/23 05:28:18;;;;;;;0.00;0.00;;;6.60;99.90;;;;;;4988674;28;20185;-77
2023/12/23 05:30:45;;;;;;;0.00;0.00;;;6.60;99.90;;;;;;4962103;28;20034;-77
2023/12/23 05:33:10;;;;;;;0.00;0.00;;;6.70;99.90;;;;;;4975945;28;20039;-77
2023/12/23 05:35:36;;;;;;;0.00;0.00;;;6.60;99.90;;;;;;4996054;28;20142;-77
2023/12/23 05:38:02;;;;;;;0.00;0.00;;;6.70;99.90;;;;;;5006431;28;20456;-77
2023/12/23 05:40:27;;;;;;;0.00;0.00;;;6.70;99.90;;;;;;4990476;28;20407;-77
2023/12/23 05:42:53;;;;;;;0.73;0.20;;;6.80;99.90;;;;;;4970882;28;20511;-77
2023/12/23 05:45:19;;;;;;;0.20;0.17;;;7.00;99.90;;;;;;4974705;28;20086;-77
2023/12/23 05:47:45;;;;;;;1.13;0.13;;;7.40;99.90;;;;;;4977588;28;20127;-77
2023/12/23 05:50:10;;;;;;;1.65;0.30;;;7.70;99.90;;;;;;4977009;28;20049;-77
2023/12/23 05:52:36;;;;;;;0.95;0.22;;;8.00;99.90;;;;;;4984719;28;20077;-77
2023/12/23 05:55:02;;;;;;;3.10;0.68;;;8.30;99.90;;;;;;4959443;28;20039;-77
2023/12/23 05:57:28;;;;;;;1.30;0.73;;;8.40;99.90;;;;;;4957681;28;20408;-77
2023/12/23 05:59:54;;;;;;;0.82;0.40;;;8.60;99.90;;;;;;5008245;28;20050;-77
2023/12/23 06:02:20;;;;;;;0.55;0.10;;;8.80;99.90;;;;;;4968853;28;20059;-77
2023/12/23 06:04:46;;;;;;;0.17;0.10;;;8.90;99.90;;;;;;5001755;28;20334;-77
2023/12/23 06:07:12;;;;;;;3.50;0.65;;;9.00;99.90;;;;;;4957856;28;20039;-77
2023/12/23 06:09:38;;;;;;;3.10;0.50;;;9.00;99.90;;;;;;4975361;28;20149;-78
2023/12/23 06:12:04;;;;;;;1.77;0.25;;;9.10;99.90;;;;;;5013537;28;20102;-77
2023/12/23 06:14:29;;;;;;;5.00;0.75;;;9.10;99.90;;;;;;4971593;28;20043;-77
2023/12/23 06:16:55;;;;;;;0.40;0.38;;;9.10;99.90;;;;;;4975250;28;20050;-77
2023/12/23 06:19:21;;;;;;;0.57;0.55;;;9.10;99.90;;;;;;4973833;28;20477;-77
2023/12/23 06:21:47;;;;;;;0.40;0.22;;;9.20;99.90;;;;;;4976056;28;20043;-77
2023/12/23 06:24:13;;;;;;;2.72;0.35;;;9.20;99.90;;;;;;5002862;28;20377;-77
2023/12/23 06:26:39;;;;;;;11.32;1.10;;;9.20;99.90;;;;;;4993677;28;20069;-77
2023/12/23 06:29:05;;;;;;;5.57;0.47;;;9.20;99.90;;;;;;4957153;28;20043;-77
2023/12/23 06:31:32;;;;;;;4.75;0.30;;;9.30;99.90;;;;;;4973266;28;20045;-76
2023/12/23 06:33:57;;;;;;;0.60;0.60;;;9.30;99.90;;;;;;4960157;28;20530;-76
2023/12/23 06:36:23;;;;;;;4.00;0.98;;;9.30;99.90;;;;;;4989794;28;20066;-77
2023/12/23 06:38:49;;;;;;;3.30;1.27;;;9.40;99.90;;;;;;4973250;28;20613;-76
2023/12/23 06:41:14;;;;;;;3.15;0.60;;;9.40;99.90;;;;;;4993516;28;20045;-76
2023/12/23 06:43:40;;;;;;;1.15;0.52;;;9.40;99.90;;;;;;5008066;28;20044;-76
2023/12/23 06:46:10;;;;;;;0.50;0.40;;;9.40;99.90;;;;;;4974524;28;20303;-76
2023/12/23 06:48:36;;;;;;;1.13;0.40;;;9.50;99.90;;;;;;4962820;28;20038;-76
2023/12/23 06:51:01;;;;;;;2.67;0.47;;;9.50;99.90;;;;;;4953913;28;20344;-76
2023/12/23 06:53:27;;;;;;;0.95;0.57;;;9.50;99.90;;;;;;4978380;28;20035;-77
2023/12/23 06:55:53;;;;;;;7.57;0.65;;;9.60;99.90;;;;;;4964841;28;20040;-75
2023/12/23 06:58:18;;;;;;;3.92;0.35;;;9.60;99.90;;;;;;4999618;28;20086;-76
2023/12/23 07:00:44;;;;;;;0.10;0.10;;;9.60;99.90;;;;;;4970139;28;20105;-76
2023/12/23 07:03:10;;;;;;;0.45;0.25;;;9.60;99.90;;;;;;4980039;28;20057;-76
2023/12/23 07:05:36;;;;;;;5.70;1.02;;;9.60;99.90;;;;;;5002195;28;20073;-76
2023/12/23 07:08:01;;;;;;;5.35;0.57;;;9.70;99.90;;;;;;4994403;28;20070;-77
2023/12/23 07:10:27;;;;;;;1.52;0.65;;;9.70;99.90;;;;;;4974199;28;20046;-77
2023/12/23 07:12:53;;;;;;;6.60;0.47;;;9.70;99.90;;;;;;4978387;28;20070;-77
2023/12/23 07:15:18;;;;;;;4.88;0.63;;;9.70;99.90;;;;;;5011841;28;20097;-76
2023/12/23 07:17:44;;;;;;;1.27;0.30;;;9.70;99.90;;;;;;5007253;28;20049;-77
2023/12/23 07:20:10;;;;;;;3.08;1.08;;;9.60;99.90;;;;;;4975706;28;20055;-76
2023/12/23 07:22:36;;;;;;;2.22;0.60;;;9.70;99.90;;;;;;4965654;28;20129;-77
2023/12/23 07:25:02;;;;;;;0.20;0.13;;;9.70;99.90;;;;;;4980632;28;20078;-77
2023/12/23 07:27:27;;;;;;;7.63;1.00;;;9.70;99.90;;;;;;5005633;28;20051;-77
2023/12/23 07:29:53;;;;;;;4.50;0.88;;;9.70;99.90;;;;;;4986937;28;20034;-77
2023/12/23 07:32:19;;;;;;;2.83;0.32;;;9.70;99.90;;;;;;4974971;28;20049;-77
2023/12/23 07:34:45;;;;;;;1.98;0.40;;;9.70;99.90;;;;;;4985328;28;20039;-76
2023/12/23 07:37:10;;;;;;;0.68;0.40;;;9.70;99.90;;;;;;4971648;28;20042;-77
2023/12/23 07:39:36;;;;;;;7.70;0.80;;;9.70;99.90;;;;;;5018929;28;20058;-77
2023/12/23 07:42:02;;;;;;;2.20;0.93;;;9.70;99.90;;;;;;4979314;28;20099;-76
2023/12/23 07:44:27;;;;;;;4.78;0.30;;;9.70;99.90;;;;;;4983418;28;20070;-76
2023/12/23 07:46:53;;;;;;;2.15;0.30;;;9.80;99.90;;;;;;4978749;28;20044;-77
2023/12/23 07:49:19;;;;;;;9.95;1.60;;;9.70;99.90;;;;;;5001790;28;20118;-77
2023/12/23 07:51:46;;;;;;;5.97;0.55;;;9.70;99.90;;;;;;5016191;28;20035;-77
2023/12/23 07:54:11;;;;;;;2.13;0.38;;;9.80;99.90;;;;;;5020292;28;20046;-77
2023/12/23 07:56:37;;;;;;;9.20;1.30;;;9.80;99.90;;;;;;5014716;28;20035;-76
2023/12/23 07:59:03;;;;;;;2.33;0.38;;;9.70;99.90;;;;;;4982648;28;20043;-77
2023/12/23 08:01:29;;;;;;;5.15;0.30;;;9.80;99.90;;;;;;4978848;28;20054;-77
2023/12/23 08:03:55;;;;;;;3.25;0.17;;;9.80;99.90;;;;;;4986646;28;20045;-77
2023/12/23 08:06:22;;;;;;;4.03;0.80;;;9.80;99.90;;;;;;4959554;28;20042;-77
2023/12/23 08:08:48;;;;;;;7.15;0.98;;;9.80;99.90;;;;;;4995569;28;22497;-77
2023/12/23 08:11:14;;;;;;;7.07;1.25;;;9.80;99.90;;;;;;4982868;28;20039;-77
2023/12/23 08:13:42;;;;;;;5.65;1.42;;;9.80;99.90;;;;;;4979687;28;20043;-76
2023/12/23 08:16:08;;;;;;;6.07;1.02;;;9.80;99.90;;;;;;4980936;28;20043;-77
2023/12/23 08:18:34;;;;;;;4.43;1.02;;;9.80;99.90;;;;;;5005201;28;20066;-76
2023/12/23 08:21:03;;;;;;;0.38;0.20;;;9.80;99.90;;;;;;4977362;28;20055;-77
2023/12/23 08:23:29;;;;;;;1.77;0.47;;;9.80;99.90;;;;;;4986543;28;20058;-77
2023/12/23 08:25:54;;;;;;;9.32;0.55;;;9.80;99.90;;;;;;4975467;28;20036;-76
2023/12/23 08:28:20;;;;;;;1.90;0.57;;;9.80;99.90;;;;;;4975634;28;20491;-77
2023/12/23 08:30:46;;;;;;;3.88;1.20;;;9.70;99.90;;;;;;4984090;28;20039;-77
2023/12/23 08:33:11;;;;;;;4.45;0.80;;;9.70;99.90;;;;;;4997260;28;20452;-76
2023/12/23 08:35:37;;;;;;;3.22;0.25;;;9.80;99.90;;;;;;5009561;28;20124;-77
2023/12/23 08:38:04;;;;;;;1.05;0.55;;;9.80;99.90;;;;;;4960625;28;20050;-77
2023/12/23 08:40:29;;;;;;;0.57;0.40;;;9.80;99.90;;;;;;5015475;28;20043;-77
2023/12/23 08:42:55;;;;;;;1.25;0.38;;;9.80;99.90;;;;;;4996153;28;20060;-77
2023/12/23 08:45:21;;;;;;;1.42;0.43;;;9.70;99.90;;;;;;4977759;28;20134;-77
2023/12/23 08:47:47;;;;;;;0.20;0.10;;;9.70;99.90;;;;;;4982389;28;20066;-77
2023/12/23 08:50:13;;;;;;;2.28;0.20;;;9.70;99.90;;;;;;4996965;28;20127;-77
2023/12/23 08:52:38;;;;;;;0.10;0.00;;;9.60;99.90;;;;;;4973041;28;20031;-77
2023/12/23 08:55:05;;;;;;;0.43;0.28;;;9.40;99.90;;;;;;4971451;28;20114;-77
2023/12/23 08:57:31;;;;;;;4.22;0.38;;;9.20;99.90;;;;;;4986945;28;20047;-77
2023/12/23 08:59:56;;;;;;;0.00;0.00;;;9.00;99.90;;;;;;5000284;28;20038;-77
2023/12/23 09:02:22;;;;;;;5.47;0.75;;;8.60;99.90;;;;;;4982631;28;20062;-79
2023/12/23 09:04:48;;;;;;;2.00;1.20;;;8.40;99.90;;;;;;4990208;28;20051;-79
2023/12/23 09:07:14;;;;;;;0.40;0.38;;;8.20;99.90;;;;;;5017639;28;20062;-79
2023/12/23 09:09:41;;;;;;;0.00;0.00;;;8.10;99.90;;;;;;4971271;28;20027;-79
2023/12/23 09:12:07;;;;;;;0.00;0.00;;;8.10;99.90;;;;;;4987749;28;20039;-79
2023/12/23 09:14:33;;;;;;;1.15;0.20;;;7.90;99.90;;;;;;5000777;28;20058;-78
2023/12/23 09:16:59;;;;;;;0.45;0.10;;;7.80;99.90;;;;;;5014293;28;20043;-78
2023/12/23 09:19:25;;;;;;;0.05;0.05;;;7.70;99.90;;;;;;4975469;28;20129;-78
2023/12/23 09:21:50;;;;;;;0.03;0.00;;;7.70;99.90;;;;;;4974936;28;20046;-78
2023/12/23 09:24:16;;;;;;;0.00;0.00;;;7.60;99.90;;;;;;4964914;28;20533;-78
2023/12/23 09:26:43;;;;;;;0.70;0.10;;;7.60;99.90;;;;;;4995078;28;20487;-78
2023/12/23 09:29:09;;;;;;;0.20;0.00;;;7.60;99.90;;;;;;4962255;28;20050;-78
2023/12/23 09:31:34;;;;;;;0.00;0.00;;;7.50;99.90;;;;;;4958218;28;20031;-78
2023/12/23 09:34:00;;;;;;;0.45;0.20;;;7.50;99.90;;;;;;4968316;28;20038;-78
2023/12/23 09:36:26;;;;;;;0.00;0.00;;;7.50;99.90;;;;;;4976372;28;20126;-78
2023/12/23 09:38:52;;;;;;;0.38;0.08;;;7.50;99.90;;;;;;4996416;28;20118;-79
2023/12/23 09:41:18;;;;;;;2.38;0.13;;;7.50;99.90;;;;;;4978649;28;20133;-79
2023/12/23 09:43:44;;;;;;;0.20;0.10;;;7.50;99.90;;;;;;4995506;28;20047;-79
2023/12/23 09:46:14;;;;;;;0.00;0.00;;;7.50;99.90;;;;;;4964089;28;20042;-79
2023/12/23 09:48:40;;;;;;;0.55;0.20;;;7.50;99.90;;;;;;4993696;28;20130;-78
2023/12/23 09:51:07;;;;;;;1.23;0.40;;;7.50;99.90;;;;;;5001215;28;20526;-78
2023/12/23 09:53:39;;;;;;;3.30;0.10;;;7.60;99.90;;;;;;4971395;28;20415;-78
2023/12/23 09:56:07;;;;;;;0.40;0.22;;;7.70;99.90;;;;;;4951594;28;20098;-78
2023/12/23 09:58:34;;;;;;;1.85;0.20;;;7.70;99.90;;;;;;4961733;28;20042;-78
2023/12/23 10:01:00;;;;;;;1.95;0.40;;;7.80;99.90;;;;;;4989593;28;20067;-78
2023/12/23 10:03:26;;;;;;;2.78;0.17;;;7.90;99.90;;;;;;4989681;28;20054;-78
2023/12/23 10:05:52;;;;;;;1.45;0.40;;;8.10;99.90;;;;;;4960401;28;20102;-78
2023/12/23 10:08:18;;;;;;;1.85;0.30;;;8.10;99.90;;;;;;4968413;28;20400;-78
2023/12/23 10:10:46;;;;;;;0.00;0.00;;;8.20;99.90;;;;;;4962012;28;20794;-78
2023/12/23 10:13:12;;;;;;;1.25;0.20;;;8.30;99.90;;;;;;4963857;28;20407;-78
2023/12/23 10:15:41;;;;;;;5.15;0.43;;;8.40;99.90;;;;;;4967476;28;20038;-78
2023/12/23 10:18:11;;;;;;;0.00;0.00;;;8.50;99.90;;;;;;4993021;28;20047;-78
2023/12/23 10:20:37;;;;;;;4.45;1.63;;;8.50;99.90;;;;;;4998640;28;20074;-78
2023/12/23 10:23:02;;;;;;;3.47;0.47;;;8.50;99.90;;;;;;4964346;28;20534;-77
2023/12/23 10:25:29;;;;;;;5.68;0.65;;;8.60;99.90;;;;;;4996881;28;20487;-77
2023/12/23 10:27:58;;;;;;;0.85;0.68;;;8.70;99.90;;;;;;4997852;28;20043;-77
2023/12/23 10:30:25;;;;;;;0.88;0.45;;;8.80;99.90;;;;;;4963437;28;20220;-77
2023/12/23 10:32:54;;;;;;;2.97;0.65;;;8.90;99.90;;;;;;4981550;28;20050;-77
2023/12/23 10:35:20;;;;;;;2.30;0.25;;;9.00;99.90;;;;;;4959648;28;20109;-77
2023/12/23 10:37:46;;;;;;;0.63;0.38;;;9.10;99.90;;;;;;4963655;28;20182;-76
2023/12/23 10:40:18;;;;;;;5.15;0.90;;;9.30;99.90;;;;;;4947135;28;20050;-76
2023/12/23 10:42:45;;;;;;;4.78;0.52;;;9.40;99.90;;;;;;4991756;28;20122;-77
2023/12/23 10:45:12;;;;;;;10.15;1.40;;;9.40;99.90;;;;;;4990426;28;20082;-77
2023/12/23 10:47:38;;;;;;;1.70;0.70;;;9.50;99.90;;;;;;4958487;28;20077;-77
2023/12/23 10:50:05;;;;;;;3.03;0.52;;;9.60;99.90;;;;;;4991268;28;20079;-77
2023/12/23 10:52:32;;;;;;;1.42;0.38;;;9.60;99.90;;;;;;4963497;28;20628;-77
2023/12/23 10:55:01;;;;;;;4.95;0.50;;;9.70;99.90;;;;;;4996310;28;20114;-77
2023/12/23 10:57:28;;;;;;;3.33;0.20;;;9.80;99.90;;;;;;4964753;28;20050;-77
2023/12/23 10:59:54;;;;;;;3.05;0.25;;;9.80;99.90;;;;;;4998598;28;20070;-77
2023/12/23 11:02:34;;;;;;;4.13;0.20;;;9.80;99.90;;;;;;4966153;28;20060;-77
2023/12/23 11:05:05;;;;;;;1.10;0.52;;;9.80;99.90;;;;;;4965229;28;20054;-77
2023/12/23 11:07:46;;;;;;;5.20;1.13;;;9.90;99.90;;;;;;4993973;28;20066;-77
2023/12/23 11:10:14;;;;;;;2.45;0.70;;;9.90;99.90;;;;;;4970476;28;20058;-76
2023/12/23 11:12:42;;;;;;;9.80;0.65;;;9.90;99.90;;;;;;4963055;28;20078;-76
2023/12/23 11:15:08;;;;;;;8.13;3.03;;;10.00;99.90;;;;;;5001395;28;20046;-77
2023/12/23 11:17:40;;;;;;;3.42;1.45;;;10.00;99.90;;;;;;4994095;28;20043;-77
2023/12/23 11:20:07;;;;;;;4.05;1.00;;;10.00;99.90;;;;;;4947914;28;20066;-77
2023/12/23 11:22:38;;;;;;;6.00;0.57;;;10.10;99.90;;;;;;4959435;28;20055;-76
2023/12/23 11:25:04;;;;;;;5.72;0.68;;;10.10;99.90;;;;;;4995224;28;20073;-77
2023/12/23 11:27:34;;;;;;;4.32;0.98;;;10.10;99.90;;;;;;4968103;28;20127;-77
2023/12/23 11:30:04;;;;;;;3.72;0.40;;;10.10;99.90;;;;;;4964660;28;20054;-77
2023/12/23 11:32:40;;;;;;;5.75;0.52;;;10.20;99.90;;;;;;4953775;28;20043;-77
2023/12/23 11:35:08;;;;;;;8.10;0.90;;;10.20;99.90;;;;;;4952873;28;20043;-76
2023/12/23 11:37:53;;;;;;;8.27;0.80;;;10.20;99.90;;;;;;4995252;28;20041;-77
2023/12/23 11:40:20;;;;;;;1.05;0.25;;;10.20;99.90;;;;;;4967067;28;20043;-76
2023/12/23 11:42:47;;;;;;;1.08;0.32;;;10.10;99.90;;;;;;4962119;28;20046;-76
2023/12/23 11:45:14;;;;;;;4.95;0.40;;;10.10;99.90;;;;;;4967073;28;20102;-76
2023/12/23 11:47:40;;;;;;;1.40;0.20;;;10.10;99.90;;;;;;4996076;28;20042;-77
2023/12/23 11:50:07;;;;;;;3.45;0.30;;;10.10;99.90;;;;;;4982086;28;20035;-77
2023/12/23 11:52:34;;;;;;;3.35;0.22;;;10.10;99.90;;;;;;4980471;28;20484;-76
2023/12/23 11:55:01;;;;;;;3.92;0.50;;;10.10;99.90;;;;;;4954898;28;20117;-76
2023/12/23 11:57:27;;;;;;;12.48;0.77;;;10.10;99.90;;;;;;4991613;28;20047;-77
2023/12/23 11:59:55;;;;;;;3.60;1.02;;;10.10;99.90;;;;;;4963501;28;20039;-77
2023/12/23 12:02:20;;;;;;;2.28;0.35;;;10.10;99.90;;;;;;4960108;28;20435;-77
2023/12/23 12:04:46;;;;;;;6.70;2.17;;;10.20;99.90;;;;;;4965018;28;20054;-77
2023/12/23 12:07:12;;;;;;;1.98;0.52;;;10.20;99.90;;;;;;4962693;28;20051;-77
2023/12/23 12:09:38;;;;;;;2.17;0.63;;;10.30;99.90;;;;;;4966926;28;20467;-77
2023/12/23 12:12:04;;;;;;;5.82;0.50;;;10.30;99.90;;;;;;4955818;28;20090;-76
2023/12/23 12:14:31;;;;;;;12.45;1.38;;;10.30;99.90;;;;;;4962106;28;20612;-77
2023/12/23 12:16:56;;;;;;;0.52;0.20;;;10.40;99.90;;;;;;4966639;28;20106;-77
2023/12/23 12:19:22;;;;;;;14.05;0.93;;;10.40;99.90;;;;;;4944346;28;20039;-77
2023/12/23 12:21:48;;;;;;;1.30;0.28;;;10.40;99.90;;;;;;4955292;28;20115;-77
2023/12/23 12:24:14;;;;;;;1.02;0.52;;;10.40;99.90;;;;;;4957434;28;20039;-77
2023/12/23 12:26:42;;;;;;;5.38;0.50;;;10.40;99.90;;;;;;4991248;28;20046;-77
2023/12/23 12:29:08;;;;;;;7.00;1.00;;;10.50;99.90;;;;;;4966702;28;20050;-77
2023/12/23 12:31:34;;;;;;;3.72;0.38;;;10.50;99.90;;;;;;4964180;28;20035;-77
2023/12/23 12:34:00;;;;;;;3.47;0.52;;;10.40;99.90;;;;;;4963204;28;20463;-77
2023/12/23 12:36:26;;;;;;;7.68;1.50;;;10.50;99.90;;;;;;4968269;28;20057;-77
2023/12/23 12:38:53;;;;;;;0.95;0.32;;;10.50;99.90;;;;;;4995405;28;20043;-77
2023/12/23 12:41:18;;;;;;;1.23;0.45;;;10.40;99.90;;;;;;4997808;28;20142;-76
2023/12/23 12:43:44;;;;;;;3.33;0.50;;;10.50;99.90;;;;;;4975103;28;20141;-77
2023/12/23 12:46:14;;;;;;;1.88;0.28;;;10.50;99.90;;;;;;4965754;28;20054;-77
2023/12/23 12:48:40;;;;;;;4.07;0.77;;;10.50;99.90;;;;;;4963077;28;20039;-77
2023/12/23 12:51:06;;;;;;;1.55;0.57;;;10.50;99.90;;;;;;4998195;28;20041;-77